Time;durP1;ratioP1;P1;durP2;ratioP2;P2;SDS_P1;SDS_P2;PMS_P1;PMS_P2;Temp;Humidity;BMP_temperature;BMP_pressure;BME280_temperature;BME280_humidity;BME280_pressure;Samples;Min_cycle;Max_cycle;Signal;HPM_P1;HPM_P2
2022/07/13 00:00:30;;;;;;;1.00;0.70;;;14.30;99.90;;;;;;5062347;28;20454;-88
2022/07/13 00:02:59;;;;;;;0.60;0.60;;;14.20;99.90;;;;;;5058698;28;20555;-89
2022/07/13 00:05:26;;;;;;;0.60;0.60;;;14.10;99.90;;;;;;5062552;28;20462;-89
2022/07/13 00:07:53;;;;;;;0.83;0.63;;;14.30;99.90;;;;;;5061013;28;20467;-88
2022/07/13 00:10:20;;;;;;;1.80;0.70;;;14.30;99.90;;;;;;5057682;28;20508;-89
2022/07/13 00:12:47;;;;;;;0.90;0.70;;;14.30;99.90;;;;;;5064125;28;20490;-88
2022/07/13 00:15:14;;;;;;;0.70;0.50;;;14.20;99.90;;;;;;5061498;28;20485;-91
2022/07/13 00:17:41;;;;;;;1.63;0.70;;;14.10;99.90;;;;;;5064043;28;20466;-90
2022/07/13 00:20:10;;;;;;;0.70;0.63;;;14.10;99.90;;;;;;5063617;28;20474;-88
2022/07/13 00:22:39;;;;;;;0.80;0.60;;;14.00;99.90;;;;;;5065230;28;20477;-90
2022/07/13 00:25:07;;;;;;;0.83;0.60;;;13.90;99.90;;;;;;5063659;28;20473;-88
2022/07/13 00:27:34;;;;;;;0.90;0.70;;;14.00;99.90;;;;;;5066036;28;20553;-89
2022/07/13 00:30:01;;;;;;;2.40;0.83;;;14.00;99.90;;;;;;5065369;28;21645;-89
2022/07/13 00:32:28;;;;;;;0.60;0.60;;;14.10;99.90;;;;;;5065986;28;20469;-90
2022/07/13 00:34:55;;;;;;;0.70;0.70;;;14.10;99.90;;;;;;5058781;28;20460;-89
2022/07/13 00:37:24;;;;;;;0.53;0.50;;;14.10;99.90;;;;;;5067427;28;20951;-88
2022/07/13 00:39:51;;;;;;;1.00;0.70;;;14.30;99.90;;;;;;5062590;28;20529;-89
2022/07/13 00:42:18;;;;;;;0.80;0.70;;;14.30;99.90;;;;;;5067467;28;20453;-89
2022/07/13 00:44:45;;;;;;;0.60;0.50;;;14.30;99.90;;;;;;5065921;28;20458;-89
2022/07/13 00:47:13;;;;;;;1.17;1.07;;;14.20;99.90;;;;;;5066344;28;20511;-89
2022/07/13 00:49:40;;;;;;;0.60;0.50;;;14.20;99.90;;;;;;5062278;28;21028;-89
2022/07/13 00:52:07;;;;;;;1.20;0.60;;;14.20;99.90;;;;;;5066178;28;21376;-89
2022/07/13 00:54:38;;;;;;;0.80;0.70;;;14.10;99.90;;;;;;5064249;28;20452;-88
2022/07/13 00:57:11;;;;;;;1.47;0.77;;;14.20;99.90;;;;;;5063473;28;20445;-89
2022/07/13 00:59:38;;;;;;;0.87;0.83;;;14.20;99.90;;;;;;5062880;28;20468;-89
2022/07/13 01:02:05;;;;;;;0.60;0.50;;;14.20;99.90;;;;;;5063684;28;20464;-88
2022/07/13 01:04:32;;;;;;;0.90;0.60;;;14.10;99.90;;;;;;5056434;28;20484;-90
2022/07/13 01:07:00;;;;;;;0.50;0.50;;;14.10;99.90;;;;;;5061151;28;20829;-89
2022/07/13 01:09:27;;;;;;;0.70;0.70;;;13.90;99.90;;;;;;5065832;28;20537;-89
2022/07/13 01:11:55;;;;;;;0.70;0.60;;;13.80;99.90;;;;;;5058854;28;20470;-88
2022/07/13 01:14:24;;;;;;;0.77;0.77;;;13.80;99.90;;;;;;5059521;28;20460;-88
2022/07/13 01:16:51;;;;;;;0.80;0.60;;;13.70;99.90;;;;;;5064999;28;20589;-90
2022/07/13 01:19:19;;;;;;;2.10;1.00;;;13.80;99.90;;;;;;5061035;28;20448;-89
2022/07/13 01:21:47;;;;;;;1.13;0.70;;;13.70;99.90;;;;;;5062937;28;20525;-89
2022/07/13 01:24:16;;;;;;;0.83;0.60;;;13.60;99.90;;;;;;5062752;28;20538;-90
2022/07/13 01:26:43;;;;;;;1.60;0.50;;;13.50;99.90;;;;;;5064468;28;20455;-89
2022/07/13 01:29:10;;;;;;;0.60;0.60;;;13.40;99.90;;;;;;5062261;28;20564;-90
2022/07/13 01:31:38;;;;;;;1.53;0.57;;;13.30;99.90;;;;;;5065624;28;20943;-89
2022/07/13 01:34:06;;;;;;;0.70;0.60;;;13.30;99.90;;;;;;5064117;28;20464;-89
2022/07/13 01:36:35;;;;;;;2.83;0.50;;;13.30;99.90;;;;;;5064696;28;20871;-89
2022/07/13 01:39:04;;;;;;;0.77;0.60;;;13.20;99.90;;;;;;5060066;28;20464;-90
2022/07/13 01:41:32;;;;;;;1.17;0.60;;;13.30;99.90;;;;;;5063173;28;20888;-88
2022/07/13 01:44:00;;;;;;;0.93;0.90;;;13.40;99.90;;;;;;5063246;28;20481;-89
2022/07/13 01:46:27;;;;;;;0.77;0.70;;;13.40;99.90;;;;;;5062666;28;20472;-88
2022/07/13 01:48:56;;;;;;;0.70;0.70;;;13.40;99.90;;;;;;5060064;28;20593;-88
2022/07/13 01:51:23;;;;;;;0.50;0.50;;;13.50;99.90;;;;;;5064533;28;20508;-89
2022/07/13 01:53:50;;;;;;;0.77;0.77;;;13.50;99.90;;;;;;5062433;28;20464;-90
2022/07/13 01:56:17;;;;;;;0.93;0.80;;;13.40;99.90;;;;;;5062702;28;21024;-88
2022/07/13 01:58:45;;;;;;;1.47;0.73;;;13.30;99.90;;;;;;5062178;28;20468;-89
2022/07/13 02:01:12;;;;;;;0.80;0.80;;;13.40;99.90;;;;;;5065603;28;20454;-88
2022/07/13 02:03:39;;;;;;;0.70;0.50;;;13.40;99.90;;;;;;5069713;28;20482;-88
2022/07/13 02:06:07;;;;;;;0.57;0.50;;;13.50;99.90;;;;;;5073666;28;20506;-88
2022/07/13 02:08:34;;;;;;;1.60;0.60;;;13.50;99.90;;;;;;5086431;28;20459;-88
2022/07/13 02:11:01;;;;;;;0.80;0.70;;;13.40;99.90;;;;;;5080434;28;20508;-88
2022/07/13 02:13:28;;;;;;;1.07;0.70;;;13.40;99.90;;;;;;5066437;28;20780;-88
2022/07/13 02:15:57;;;;;;;4.33;0.70;;;13.40;99.90;;;;;;5064412;28;20551;-88
2022/07/13 02:18:25;;;;;;;0.83;0.80;;;13.30;99.90;;;;;;5058932;28;20525;-88
2022/07/13 02:20:52;;;;;;;4.93;0.97;;;13.20;99.90;;;;;;5063035;28;20815;-89
2022/07/13 02:23:19;;;;;;;1.20;0.60;;;13.10;99.90;;;;;;5062099;28;20514;-89
2022/07/13 02:25:46;;;;;;;2.30;0.93;;;13.10;99.90;;;;;;5060298;28;20825;-88
2022/07/13 02:28:13;;;;;;;0.90;0.80;;;13.20;99.90;;;;;;5057747;28;20462;-88
2022/07/13 02:30:40;;;;;;;1.03;0.60;;;13.20;99.90;;;;;;5065117;28;20538;-89
2022/07/13 02:33:08;;;;;;;2.00;1.13;;;13.30;99.90;;;;;;5058946;28;20517;-89
2022/07/13 02:35:35;;;;;;;0.60;0.50;;;13.20;99.90;;;;;;5064991;28;20504;-89
2022/07/13 02:38:02;;;;;;;0.80;0.63;;;13.20;99.90;;;;;;5063009;28;20521;-88
2022/07/13 02:40:29;;;;;;;1.33;0.80;;;13.20;99.90;;;;;;5061447;28;20462;-89
2022/07/13 02:42:56;;;;;;;1.63;0.50;;;13.20;99.90;;;;;;5061886;28;20462;-88
2022/07/13 02:45:23;;;;;;;1.27;0.60;;;13.20;99.90;;;;;;5065126;28;20443;-88
2022/07/13 02:47:50;;;;;;;0.80;0.60;;;13.20;99.90;;;;;;5061135;28;20462;-89
2022/07/13 02:50:19;;;;;;;0.50;0.50;;;13.30;99.90;;;;;;5060440;28;20509;-90
2022/07/13 02:52:46;;;;;;;0.60;0.60;;;13.30;99.90;;;;;;5062810;28;20473;-88
2022/07/13 02:55:13;;;;;;;0.80;0.63;;;13.30;99.90;;;;;;5063115;28;20454;-88
2022/07/13 02:57:40;;;;;;;1.27;0.80;;;13.30;99.90;;;;;;5061851;28;20459;-88
2022/07/13 03:00:08;;;;;;;0.70;0.43;;;13.30;99.90;;;;;;5060972;28;20458;-89
2022/07/13 03:02:36;;;;;;;0.70;0.70;;;13.30;99.90;;;;;;5059147;28;20513;-87
2022/07/13 03:05:03;;;;;;;1.90;0.70;;;13.20;99.90;;;;;;5056233;28;20527;-88
2022/07/13 03:07:31;;;;;;;0.77;0.60;;;13.20;99.90;;;;;;5062415;28;20527;-88
2022/07/13 03:09:58;;;;;;;0.60;0.60;;;13.20;99.90;;;;;;5057670;28;20458;-90
2022/07/13 03:12:25;;;;;;;1.07;0.60;;;13.20;99.90;;;;;;5060868;28;20470;-89
2022/07/13 03:14:52;;;;;;;2.03;0.53;;;13.20;99.90;;;;;;5066202;28;20457;-90
2022/07/13 03:17:19;;;;;;;0.47;0.43;;;13.20;99.90;;;;;;5065735;28;20468;-89
2022/07/13 03:19:46;;;;;;;0.73;0.70;;;13.10;99.90;;;;;;5084074;28;20452;-88
2022/07/13 03:22:13;;;;;;;0.80;0.60;;;13.10;99.90;;;;;;5085506;28;20525;-88
2022/07/13 03:24:42;;;;;;;1.13;1.13;;;13.00;99.90;;;;;;5065381;28;20570;-90
2022/07/13 03:27:09;;;;;;;0.70;0.70;;;12.90;99.90;;;;;;5060047;28;20455;-88
2022/07/13 03:29:36;;;;;;;0.47;0.40;;;12.90;99.90;;;;;;5063732;28;20455;-89
2022/07/13 03:32:03;;;;;;;0.80;0.60;;;12.90;99.90;;;;;;5063631;28;20513;-88
2022/07/13 03:34:30;;;;;;;0.73;0.70;;;13.00;99.90;;;;;;5058920;28;20556;-86
2022/07/13 03:36:57;;;;;;;0.50;0.50;;;13.00;99.90;;;;;;5065123;28;20445;-85
2022/07/13 03:39:24;;;;;;;0.90;0.77;;;12.80;99.90;;;;;;5061912;28;20476;-88
2022/07/13 03:41:52;;;;;;;0.87;0.40;;;12.80;99.90;;;;;;5061723;28;20451;-90
2022/07/13 03:44:19;;;;;;;0.90;0.70;;;12.80;99.90;;;;;;5063593;28;20486;-88
2022/07/13 03:46:46;;;;;;;0.73;0.57;;;12.70;99.90;;;;;;5062382;28;20931;-88
2022/07/13 03:49:13;;;;;;;0.60;0.60;;;12.70;99.90;;;;;;5063011;28;20454;-88
2022/07/13 03:51:41;;;;;;;0.90;0.60;;;12.60;99.90;;;;;;5061946;28;20516;-88
2022/07/13 03:54:08;;;;;;;0.70;0.60;;;12.60;99.90;;;;;;5062849;28;20462;-89
2022/07/13 03:56:36;;;;;;;0.53;0.53;;;12.60;99.90;;;;;;5063791;28;20446;-88
2022/07/13 03:59:04;;;;;;;0.60;0.50;;;12.60;99.90;;;;;;5054519;28;20528;-88
2022/07/13 04:01:31;;;;;;;3.33;0.97;;;12.60;99.90;;;;;;5063177;28;20455;-89
2022/07/13 04:03:58;;;;;;;2.13;0.67;;;12.70;99.90;;;;;;5063008;28;20567;-88
2022/07/13 04:06:26;;;;;;;2.00;0.60;;;12.80;99.90;;;;;;5060393;28;20490;-87
2022/07/13 04:08:53;;;;;;;1.13;0.90;;;12.90;99.90;;;;;;5057972;28;20479;-88
2022/07/13 04:11:20;;;;;;;0.70;0.70;;;12.90;99.90;;;;;;5061016;28;20508;-87
2022/07/13 04:13:47;;;;;;;1.70;0.70;;;12.90;99.90;;;;;;5059158;28;20529;-88
2022/07/13 04:16:15;;;;;;;0.50;0.47;;;12.90;99.90;;;;;;5058265;28;20491;-90
2022/07/13 04:18:42;;;;;;;0.93;0.93;;;12.90;99.90;;;;;;5055330;28;20884;-88
2022/07/13 04:21:10;;;;;;;2.37;1.30;;;13.00;99.90;;;;;;5057658;28;21043;-88
2022/07/13 04:23:37;;;;;;;0.50;0.47;;;13.10;99.90;;;;;;5057511;28;20467;-89
2022/07/13 04:26:05;;;;;;;0.63;0.63;;;13.20;99.90;;;;;;5055345;28;20464;-88
2022/07/13 04:28:32;;;;;;;3.33;0.80;;;13.30;99.90;;;;;;5059135;28;20540;-89
2022/07/13 04:30:59;;;;;;;0.60;0.60;;;13.30;99.90;;;;;;5053074;28;20466;-88
2022/07/13 04:33:27;;;;;;;0.80;0.67;;;13.40;99.90;;;;;;5061247;28;20519;-87
2022/07/13 04:35:54;;;;;;;0.87;0.87;;;13.50;99.90;;;;;;5062532;28;20458;-89
2022/07/13 04:38:21;;;;;;;0.60;0.60;;;13.50;99.90;;;;;;5064569;28;20467;-87
2022/07/13 04:40:48;;;;;;;0.77;0.60;;;13.70;99.90;;;;;;5054289;28;20938;-88
2022/07/13 04:43:15;;;;;;;0.80;0.70;;;13.90;99.90;;;;;;5059035;28;20554;-87
2022/07/13 04:45:42;;;;;;;0.50;0.50;;;14.10;99.90;;;;;;5061162;28;20965;-87
2022/07/13 04:48:09;;;;;;;0.70;0.70;;;14.20;99.90;;;;;;5060236;28;20536;-89
2022/07/13 04:50:37;;;;;;;3.83;0.80;;;14.20;99.90;;;;;;5061550;28;20472;-88
2022/07/13 04:53:04;;;;;;;2.50;1.00;;;14.30;99.90;;;;;;5054207;28;20473;-87
2022/07/13 04:55:31;;;;;;;2.40;0.93;;;14.40;99.90;;;;;;5059882;28;21090;-87
2022/07/13 04:57:58;;;;;;;0.80;0.60;;;14.50;99.90;;;;;;5058755;28;20461;-90
2022/07/13 05:00:25;;;;;;;1.03;0.90;;;14.70;99.90;;;;;;5061002;28;20459;-90
2022/07/13 05:02:52;;;;;;;0.90;0.60;;;14.70;99.90;;;;;;5062179;28;20521;-89
2022/07/13 05:05:19;;;;;;;1.20;0.80;;;14.80;99.90;;;;;;5065072;28;20488;-87
2022/07/13 05:07:48;;;;;;;1.23;0.67;;;15.00;99.90;;;;;;5064896;28;20470;-87
2022/07/13 05:10:15;;;;;;;0.80;0.53;;;15.10;99.90;;;;;;5061507;28;20462;-89
2022/07/13 05:12:43;;;;;;;1.20;0.63;;;15.20;99.90;;;;;;5062847;28;20936;-88
2022/07/13 05:15:11;;;;;;;1.20;0.97;;;15.30;99.90;;;;;;5062017;28;20477;-88
2022/07/13 05:17:38;;;;;;;2.63;0.73;;;15.60;99.90;;;;;;5058109;28;20461;-89
2022/07/13 05:20:07;;;;;;;0.60;0.60;;;15.80;99.90;;;;;;5062014;28;20490;-89
2022/07/13 05:22:34;;;;;;;0.60;0.60;;;15.90;99.90;;;;;;5061668;28;20924;-89
2022/07/13 05:25:02;;;;;;;1.17;1.07;;;16.20;99.90;;;;;;5064003;28;20493;-91
2022/07/13 05:27:29;;;;;;;1.00;0.50;;;16.30;99.90;;;;;;5063061;28;20451;-91
2022/07/13 05:29:56;;;;;;;1.07;0.70;;;16.50;99.90;;;;;;5067204;28;20458;-91
2022/07/13 05:32:23;;;;;;;0.70;0.70;;;16.60;99.90;;;;;;5060584;28;20470;-90
2022/07/13 05:34:50;;;;;;;0.60;0.60;;;16.70;99.90;;;;;;5065562;28;20519;-89
2022/07/13 05:37:17;;;;;;;0.90;0.40;;;16.80;99.90;;;;;;5064874;28;20463;-89
2022/07/13 05:39:45;;;;;;;0.63;0.60;;;16.90;99.90;;;;;;5061689;28;20478;-91
2022/07/13 05:42:14;;;;;;;0.60;0.60;;;17.00;99.90;;;;;;5065002;28;20521;-91
2022/07/13 05:44:41;;;;;;;0.70;0.70;;;17.10;99.90;;;;;;5061536;28;20494;-89
2022/07/13 05:47:08;;;;;;;0.70;0.57;;;17.20;99.90;;;;;;5064790;28;20451;-89
2022/07/13 05:49:35;;;;;;;0.70;0.63;;;17.50;99.90;;;;;;5061499;28;20520;-87
2022/07/13 05:52:02;;;;;;;0.60;0.50;;;17.60;99.90;;;;;;5062496;28;20765;-88
2022/07/13 05:54:30;;;;;;;0.50;0.50;;;17.70;99.90;;;;;;5059481;28;20490;-89
2022/07/13 05:56:57;;;;;;;2.10;0.70;;;17.80;99.90;;;;;;5057371;28;20486;-89
2022/07/13 05:59:26;;;;;;;0.53;0.50;;;17.90;99.90;;;;;;5056515;28;20511;-88
2022/07/13 06:01:53;;;;;;;0.53;0.37;;;18.10;99.90;;;;;;5059402;28;20460;-88
2022/07/13 06:04:20;;;;;;;0.90;0.50;;;18.20;99.90;;;;;;5065030;28;20490;-89
2022/07/13 06:06:47;;;;;;;0.50;0.40;;;18.20;99.90;;;;;;5065112;28;20448;-89
2022/07/13 06:09:14;;;;;;;0.40;0.40;;;18.30;99.90;;;;;;5059339;28;20452;-89
2022/07/13 06:11:41;;;;;;;2.03;0.70;;;18.40;99.90;;;;;;5063965;28;20463;-91
2022/07/13 06:14:09;;;;;;;0.60;0.40;;;18.50;99.90;;;;;;5070097;28;20456;-89
2022/07/13 06:16:38;;;;;;;1.43;0.70;;;18.60;99.90;;;;;;5080011;28;20502;-89
2022/07/13 06:19:06;;;;;;;5.03;0.60;;;18.60;99.90;;;;;;5075031;28;20482;-89
2022/07/13 06:21:33;;;;;;;1.37;0.60;;;18.80;99.90;;;;;;5061543;28;20470;-90
2022/07/13 06:24:00;;;;;;;0.60;0.60;;;19.00;99.90;;;;;;5059700;28;20979;-88
2022/07/13 06:26:27;;;;;;;0.50;0.50;;;19.10;99.90;;;;;;5063555;28;20456;-88
2022/07/13 06:28:54;;;;;;;1.67;0.60;;;19.20;99.90;;;;;;5064625;28;20459;-91
2022/07/13 06:31:21;;;;;;;0.90;0.60;;;19.30;99.90;;;;;;5063627;28;20437;-89
2022/07/13 06:33:52;;;;;;;0.70;0.67;;;19.40;99.90;;;;;;5062475;28;20478;-90
2022/07/13 06:36:19;;;;;;;0.60;0.53;;;19.40;99.90;;;;;;5064357;28;20531;-89
2022/07/13 06:38:48;;;;;;;0.57;0.57;;;19.40;99.90;;;;;;5059319;28;20468;-88
2022/07/13 06:41:15;;;;;;;0.70;0.70;;;19.50;99.90;;;;;;5061430;28;20509;-90
2022/07/13 06:43:42;;;;;;;0.67;0.60;;;19.80;99.90;;;;;;5062403;28;20463;-90
2022/07/13 06:46:10;;;;;;;0.67;0.60;;;19.90;99.90;;;;;;5059170;28;21192;-89
2022/07/13 06:48:37;;;;;;;0.63;0.63;;;19.90;99.90;;;;;;5059755;28;20478;-92
2022/07/13 06:51:05;;;;;;;0.60;0.50;;;20.00;99.90;;;;;;5062681;28;20463;-90
2022/07/13 06:53:33;;;;;;;2.70;0.70;;;20.20;99.90;;;;;;5060738;28;20465;-90
2022/07/13 06:56:00;;;;;;;0.80;0.50;;;20.30;99.90;;;;;;5059952;28;20443;-90
2022/07/13 06:58:27;;;;;;;0.80;0.53;;;20.60;99.90;;;;;;5060764;28;20462;-89
2022/07/13 07:00:57;;;;;;;0.60;0.60;;;20.70;99.90;;;;;;5054503;28;20952;-89
2022/07/13 07:03:25;;;;;;;1.37;0.53;;;20.70;99.70;;;;;;5056092;28;20505;-90
2022/07/13 07:05:52;;;;;;;1.20;0.80;;;20.90;99.80;;;;;;5060123;28;20525;-89
2022/07/13 07:08:21;;;;;;;0.60;0.60;;;21.00;99.90;;;;;;5061337;28;20637;-90
2022/07/13 07:10:48;;;;;;;0.80;0.70;;;21.00;98.80;;;;;;5057701;28;20468;-93
2022/07/13 07:13:15;;;;;;;0.60;0.50;;;21.40;98.40;;;;;;5057995;28;20542;-90
2022/07/13 07:15:42;;;;;;;0.80;0.70;;;21.60;96.80;;;;;;5062587;28;20487;-91
2022/07/13 07:18:09;;;;;;;0.87;0.60;;;21.70;97.50;;;;;;5062510;28;20517;-88
2022/07/13 07:20:37;;;;;;;0.97;0.50;;;21.90;96.90;;;;;;5060677;28;20452;-89
2022/07/13 07:23:04;;;;;;;0.50;0.50;;;22.10;97.60;;;;;;5060811;28;20514;-91
2022/07/13 07:25:32;;;;;;;0.77;0.60;;;22.20;98.10;;;;;;5063388;28;21040;-87
2022/07/13 07:28:00;;;;;;;0.50;0.50;;;22.20;95.80;;;;;;5056747;28;20942;-89
2022/07/13 07:30:27;;;;;;;0.43;0.40;;;22.40;96.60;;;;;;5062859;28;20998;-87
2022/07/13 07:32:54;;;;;;;1.10;1.07;;;22.40;95.20;;;;;;5059322;28;20462;-89
2022/07/13 07:35:21;;;;;;;0.60;0.57;;;22.40;95.10;;;;;;5063463;28;20452;-88
2022/07/13 07:37:48;;;;;;;0.60;0.53;;;22.50;95.40;;;;;;5058291;28;20938;-88
2022/07/13 07:40:15;;;;;;;0.70;0.70;;;22.40;94.10;;;;;;5062436;28;20464;-90
2022/07/13 07:42:44;;;;;;;0.70;0.50;;;22.60;94.90;;;;;;5057544;28;20961;-89
2022/07/13 07:45:11;;;;;;;0.70;0.50;;;22.90;94.90;;;;;;5061350;28;20478;-88
2022/07/13 07:47:39;;;;;;;0.90;0.60;;;23.00;94.50;;;;;;5058548;28;20533;-89
2022/07/13 07:50:08;;;;;;;1.50;0.97;;;22.90;94.20;;;;;;5063169;28;20501;-88
2022/07/13 07:52:35;;;;;;;1.00;0.60;;;22.90;94.00;;;;;;5058108;28;20464;-92
2022/07/13 07:55:02;;;;;;;1.90;0.60;;;22.80;93.30;;;;;;5063175;28;20839;-89
2022/07/13 07:57:30;;;;;;;0.63;0.60;;;22.80;93.90;;;;;;5063952;28;20448;-90
2022/07/13 07:59:58;;;;;;;0.73;0.73;;;22.80;94.30;;;;;;5058758;28;20456;-89
2022/07/13 08:02:25;;;;;;;0.63;0.60;;;22.90;93.60;;;;;;5059628;28;20459;-89
2022/07/13 08:04:52;;;;;;;1.03;1.00;;;22.90;93.50;;;;;;5057735;28;20525;-88
2022/07/13 08:07:20;;;;;;;0.70;0.70;;;23.10;94.60;;;;;;5060139;28;20555;-88
2022/07/13 08:09:47;;;;;;;0.80;0.80;;;23.20;93.30;;;;;;5062616;28;20460;-90
2022/07/13 08:12:14;;;;;;;1.03;1.00;;;23.20;93.70;;;;;;5054267;28;20994;-89
2022/07/13 08:14:41;;;;;;;1.07;0.97;;;23.30;92.90;;;;;;5057058;28;20471;-91
2022/07/13 08:17:10;;;;;;;0.80;0.80;;;23.50;93.50;;;;;;5063932;28;20497;-88
2022/07/13 08:19:37;;;;;;;0.87;0.87;;;23.30;92.00;;;;;;5063890;28;20448;-89
2022/07/13 08:22:04;;;;;;;0.90;0.90;;;23.30;94.10;;;;;;5060966;28;20550;-89
2022/07/13 08:24:31;;;;;;;1.30;1.20;;;23.30;92.00;;;;;;5058905;28;20455;-89
2022/07/13 08:26:58;;;;;;;1.60;0.97;;;23.30;91.20;;;;;;5064584;28;20558;-91
2022/07/13 08:29:25;;;;;;;0.90;0.90;;;23.50;91.10;;;;;;5060262;28;20494;-89
2022/07/13 08:31:52;;;;;;;1.53;0.90;;;23.60;92.20;;;;;;5059969;28;20459;-91
2022/07/13 08:39:49;;;;;;;0.70;0.70;;;23.90;91.20;;;;;;5065776;28;20919;-91
2022/07/13 08:42:17;;;;;;;0.90;0.90;;;23.90;90.20;;;;;;5064782;28;20519;-89
2022/07/13 08:44:44;;;;;;;0.70;0.60;;;24.10;90.10;;;;;;5062453;28;20467;-89
2022/07/13 08:47:11;;;;;;;0.80;0.63;;;24.00;90.00;;;;;;5067366;28;20440;-89
2022/07/13 08:49:40;;;;;;;0.53;0.50;;;24.30;88.30;;;;;;5058563;28;20496;-92
2022/07/13 08:52:08;;;;;;;0.50;0.47;;;24.30;88.10;;;;;;5065869;28;20448;-89
2022/07/13 08:54:35;;;;;;;1.33;0.50;;;24.40;88.50;;;;;;5063956;28;20455;-89
2022/07/13 08:57:02;;;;;;;0.60;0.47;;;24.40;88.40;;;;;;5067489;28;20455;-89
2022/07/13 08:59:29;;;;;;;0.50;0.50;;;24.40;86.00;;;;;;5063920;28;20460;-90
2022/07/13 09:01:57;;;;;;;0.50;0.47;;;24.60;84.60;;;;;;5068539;28;20444;-91
2022/07/13 09:04:24;;;;;;;1.07;1.07;;;24.50;85.90;;;;;;5065261;28;20525;-89
2022/07/13 09:06:52;;;;;;;0.90;0.43;;;24.80;89.20;;;;;;5061309;28;20936;-88
2022/07/13 09:09:32;;;;;;;0.80;0.53;;;24.90;86.80;;;;;;5071124;28;20459;-91
2022/07/13 09:12:18;;;;;;;1.20;0.50;;;25.00;78.40;;;;;;5079687;28;20477;-91
2022/07/13 09:14:50;;;;;;;0.60;0.60;;;25.30;85.00;;;;;;5079892;28;21261;-89
2022/07/13 09:17:39;;;;;;;2.23;0.50;;;25.30;82.60;;;;;;5068371;28;20550;-89
2022/07/13 09:20:22;;;;;;;0.60;0.53;;;25.30;81.10;;;;;;5057239;28;20455;-90
2022/07/13 09:22:52;;;;;;;0.97;0.50;;;25.10;84.00;;;;;;5063836;28;20466;-90
2022/07/13 09:25:27;;;;;;;2.73;1.90;;;25.20;82.60;;;;;;5062161;28;21000;-88
2022/07/13 09:27:55;;;;;;;0.60;0.60;;;25.30;82.30;;;;;;5065012;28;20467;-88
2022/07/13 09:30:23;;;;;;;0.50;0.50;;;25.10;82.50;;;;;;5060157;28;20447;-88
2022/07/13 09:32:51;;;;;;;0.70;0.50;;;25.20;82.10;;;;;;5067344;28;20451;-89
2022/07/13 09:35:18;;;;;;;0.87;0.50;;;25.30;79.40;;;;;;5055557;28;20460;-90
2022/07/13 09:37:45;;;;;;;1.00;0.50;;;25.50;80.20;;;;;;5060963;28;20557;-89
2022/07/13 09:40:17;;;;;;;0.50;0.40;;;25.40;78.60;;;;;;5058916;28;20856;-90
2022/07/13 09:42:45;;;;;;;0.50;0.40;;;25.40;80.70;;;;;;5057393;28;20844;-90
2022/07/13 09:47:59;;;;;;;0.50;0.40;;;25.20;80.50;;;;;;5056321;28;20451;-90
2022/07/13 09:50:39;;;;;;;0.50;0.50;;;25.40;76.80;;;;;;5052877;28;20472;-89
2022/07/13 09:53:23;;;;;;;1.33;0.50;;;25.40;78.40;;;;;;5052981;28;20451;-92
2022/07/13 09:55:53;;;;;;;0.60;0.53;;;25.50;76.00;;;;;;5058572;28;20541;-91
2022/07/13 09:58:23;;;;;;;1.00;0.40;;;25.50;80.00;;;;;;5058155;28;21055;-89
2022/07/13 10:00:52;;;;;;;0.60;0.60;;;25.70;80.70;;;;;;5056555;28;20529;-92
2022/07/13 10:03:19;;;;;;;0.60;0.50;;;25.80;80.50;;;;;;5060739;28;20518;-90
2022/07/13 10:05:47;;;;;;;0.90;0.50;;;26.00;79.50;;;;;;5058131;28;20480;-89
2022/07/13 10:08:16;;;;;;;0.50;0.40;;;26.20;77.10;;;;;;5059352;28;20460;-91
2022/07/13 10:10:44;;;;;;;1.13;0.50;;;26.00;74.60;;;;;;5058646;28;20791;-88
2022/07/13 10:13:13;;;;;;;0.60;0.40;;;26.10;74.10;;;;;;5058989;28;20464;-90
2022/07/13 10:15:40;;;;;;;0.50;0.50;;;26.00;76.00;;;;;;5058274;28;21074;-91
2022/07/13 10:18:10;;;;;;;0.50;0.40;;;25.90;71.60;;;;;;5056841;28;20912;-91
2022/07/13 10:20:42;;;;;;;0.50;0.40;;;25.70;71.70;;;;;;5053602;28;20484;-91
2022/07/13 10:23:10;;;;;;;0.50;0.40;;;25.80;74.40;;;;;;5058886;28;20460;-89
2022/07/13 10:25:45;;;;;;;0.60;0.50;;;26.00;71.70;;;;;;5062487;28;20491;-91
2022/07/13 10:28:13;;;;;;;0.83;0.50;;;26.20;73.00;;;;;;5061160;28;20456;-90
2022/07/13 10:30:40;;;;;;;0.50;0.40;;;26.50;74.60;;;;;;5065686;28;20463;-90
2022/07/13 10:33:20;;;;;;;1.27;0.50;;;26.40;71.40;;;;;;5059746;28;20467;-92
2022/07/13 10:35:49;;;;;;;0.50;0.40;;;26.30;69.50;;;;;;5059978;28;20471;-92
2022/07/13 10:38:22;;;;;;;0.60;0.50;;;26.70;68.80;;;;;;5057659;28;20456;-91
2022/07/13 10:40:50;;;;;;;0.50;0.40;;;26.60;74.60;;;;;;5063544;28;20436;-90
2022/07/13 10:43:21;;;;;;;0.90;0.50;;;26.90;73.00;;;;;;5058089;28;20495;-91
2022/07/13 10:45:52;;;;;;;0.50;0.50;;;27.10;70.30;;;;;;5058068;28;20519;-93
2022/07/13 10:48:40;;;;;;;0.50;0.40;;;27.20;69.10;;;;;;5058729;28;20485;-91
2022/07/13 10:51:20;;;;;;;0.50;0.40;;;27.10;64.10;;;;;;5058060;28;20452;-90
2022/07/13 10:54:08;;;;;;;0.50;0.40;;;26.90;66.40;;;;;;5063680;28;20468;-90
2022/07/13 10:56:35;;;;;;;0.50;0.43;;;27.00;65.00;;;;;;5056817;28;20523;-90
2022/07/13 10:59:04;;;;;;;0.53;0.40;;;26.90;64.50;;;;;;5059051;28;20471;-95
2022/07/13 11:01:48;;;;;;;3.60;0.50;;;26.90;62.50;;;;;;5058452;28;20543;-92
2022/07/13 11:04:17;;;;;;;1.50;0.40;;;27.10;66.30;;;;;;5060296;28;20462;-92
2022/07/13 11:07:05;;;;;;;0.50;0.50;;;27.10;62.60;;;;;;5060293;28;20950;-92
2022/07/13 11:09:32;;;;;;;0.50;0.40;;;27.30;62.60;;;;;;5058434;28;20516;-94
2022/07/13 11:11:59;;;;;;;0.63;0.63;;;27.50;65.00;;;;;;5060525;28;20455;-92
2022/07/13 11:14:49;;;;;;;0.60;0.50;;;27.50;61.40;;;;;;5058680;28;20445;-92
2022/07/13 11:17:18;;;;;;;0.60;0.50;;;27.30;63.30;;;;;;5055593;28;20548;-92
2022/07/13 11:19:54;;;;;;;0.50;0.50;;;27.60;68.60;;;;;;5060177;28;20467;-91
2022/07/13 11:22:21;;;;;;;0.50;0.40;;;28.00;66.00;;;;;;5056516;28;20464;-92
2022/07/13 11:25:23;;;;;;;0.53;0.47;;;27.80;63.60;;;;;;5060885;28;20507;-93
2022/07/13 11:28:04;;;;;;;0.60;0.40;;;27.90;57.30;;;;;;5045593;28;20479;-94
2022/07/13 11:30:36;;;;;;;0.60;0.40;;;28.00;57.90;;;;;;5062508;28;20967;-93
2022/07/13 11:33:08;;;;;;;0.50;0.50;;;28.00;58.20;;;;;;5056762;28;20535;-92
2022/07/13 11:35:36;;;;;;;0.60;0.40;;;28.20;58.80;;;;;;5057651;28;20462;-93
2022/07/13 11:38:04;;;;;;;0.50;0.40;;;28.50;58.70;;;;;;5062743;28;20481;-94
2022/07/13 11:40:33;;;;;;;0.50;0.50;;;29.40;60.60;;;;;;5061475;28;20459;-93
2022/07/13 11:43:01;;;;;;;0.70;0.50;;;29.50;57.10;;;;;;5057286;28;20537;-91
2022/07/13 11:45:29;;;;;;;0.50;0.40;;;29.10;57.90;;;;;;5059039;28;20476;-92
2022/07/13 11:47:59;;;;;;;0.50;0.50;;;29.10;57.10;;;;;;5053893;28;20575;-92
2022/07/13 11:50:44;;;;;;;0.60;0.40;;;29.10;57.00;;;;;;5053612;28;20463;-91
2022/07/13 11:53:24;;;;;;;0.50;0.43;;;28.60;57.10;;;;;;5056808;28;20452;-92
2022/07/13 11:55:52;;;;;;;1.33;0.40;;;28.30;57.60;;;;;;5055276;28;20542;-90
2022/07/13 11:58:24;;;;;;;0.97;0.87;;;28.10;57.20;;;;;;5052543;28;20452;-91
2022/07/13 12:00:51;;;;;;;0.50;0.40;;;28.30;54.50;;;;;;5052337;28;20472;-91
2022/07/13 12:03:30;;;;;;;0.60;0.50;;;28.10;57.00;;;;;;5058124;28;21791;-91
2022/07/13 12:06:06;;;;;;;0.50;0.40;;;28.00;57.50;;;;;;5066107;28;20482;-91
2022/07/13 12:08:34;;;;;;;1.20;0.53;;;28.00;56.30;;;;;;5075177;28;20452;-92
2022/07/13 12:11:03;;;;;;;0.50;0.30;;;27.70;55.90;;;;;;5073187;28;20448;-91
2022/07/13 12:13:33;;;;;;;1.27;0.40;;;28.10;54.90;;;;;;5064714;28;20524;-93
2022/07/13 12:16:00;;;;;;;0.50;0.50;;;28.30;56.80;;;;;;5059986;28;20549;-92
2022/07/13 12:18:29;;;;;;;3.50;0.40;;;28.20;52.20;;;;;;5061041;28;20521;-92
2022/07/13 12:20:56;;;;;;;0.50;0.40;;;28.20;54.90;;;;;;5064217;28;20576;-95
2022/07/13 12:23:24;;;;;;;1.53;0.40;;;28.20;53.00;;;;;;5062449;28;20984;-93
2022/07/13 12:26:06;;;;;;;0.50;0.30;;;28.40;52.90;;;;;;5061965;28;20493;-93
2022/07/13 12:28:33;;;;;;;0.50;0.40;;;28.60;53.20;;;;;;5064336;28;20546;-94
2022/07/13 12:31:02;;;;;;;0.40;0.40;;;28.50;49.60;;;;;;5060022;28;20457;-90
2022/07/13 12:33:42;;;;;;;0.50;0.40;;;28.60;49.60;;;;;;5062600;28;20463;-91
2022/07/13 12:36:11;;;;;;;2.53;0.50;;;28.80;45.60;;;;;;5059191;28;20487;-93
2022/07/13 12:38:54;;;;;;;0.73;0.40;;;29.10;46.20;;;;;;5060262;28;20447;-94
2022/07/13 12:41:29;;;;;;;0.50;0.30;;;29.00;48.80;;;;;;5051640;28;20466;-92
2022/07/13 12:43:58;;;;;;;0.50;0.40;;;29.10;47.40;;;;;;5052612;28;20959;-90
2022/07/13 12:46:25;;;;;;;0.50;0.40;;;29.20;47.70;;;;;;5057019;28;20487;-90
2022/07/13 12:49:03;;;;;;;0.40;0.30;;;29.10;49.70;;;;;;5063820;28;20546;-92
2022/07/13 12:51:50;;;;;;;0.57;0.57;;;29.10;45.10;;;;;;5068137;28;20456;-91
2022/07/13 12:54:18;;;;;;;0.50;0.40;;;29.30;45.10;;;;;;5066714;28;20490;-89
2022/07/13 12:56:51;;;;;;;0.40;0.40;;;29.50;47.20;;;;;;5068940;28;20475;-91
2022/07/13 12:59:20;;;;;;;0.50;0.30;;;30.00;47.90;;;;;;5069217;28;20451;-91
2022/07/13 13:01:48;;;;;;;0.50;0.33;;;29.90;46.40;;;;;;5068884;28;20812;-91
2022/07/13 13:04:17;;;;;;;0.50;0.40;;;30.30;45.90;;;;;;5072540;28;20466;-91